createdAt,value
2024-04-25T00:01:11.925Z,7.60
2024-04-25T00:05:14.733Z,7.10
2024-04-25T00:09:17.274Z,6.43
2024-04-25T00:13:19.897Z,8.13
2024-04-25T00:17:22.492Z,6.87
2024-04-25T00:21:25.166Z,6.73
2024-04-25T00:25:27.777Z,9.10
2024-04-25T00:29:30.355Z,6.40
2024-04-25T00:33:32.986Z,6.97
2024-04-25T00:37:35.564Z,7.23
2024-04-25T00:41:38.175Z,7.50
2024-04-25T00:45:40.850Z,8.00
2024-04-25T00:49:43.595Z,7.93
2024-04-25T00:53:46.407Z,7.10
2024-04-25T00:57:50.024Z,9.77
2024-04-25T01:01:53.251Z,7.90
2024-04-25T01:05:56.659Z,6.23
2024-04-25T01:09:59.184Z,7.70
2024-04-25T01:14:02.108Z,7.40
2024-04-25T01:18:04.802Z,8.37
2024-04-25T01:22:07.633Z,6.87
2024-04-25T01:26:11.904Z,7.80
2024-04-25T01:30:15.120Z,7.33
2024-04-25T01:34:18.039Z,7.60
2024-04-25T01:38:20.604Z,9.20
2024-04-25T01:42:23.324Z,9.07
2024-04-25T01:46:25.899Z,9.07
2024-04-25T01:50:28.603Z,6.80
2024-04-25T01:54:31.218Z,8.03
2024-04-25T01:58:33.822Z,7.90
2024-04-25T02:02:36.824Z,7.80
2024-04-25T02:06:39.496Z,8.57
2024-04-25T02:10:42.239Z,6.53
2024-04-25T02:14:44.790Z,6.80
2024-04-25T02:18:47.527Z,7.87
2024-04-25T02:22:50.210Z,6.47
2024-04-25T02:26:52.765Z,5.77
2024-04-25T02:30:55.373Z,7.07
2024-04-25T02:34:57.924Z,6.83
2024-04-25T02:39:00.475Z,6.77
2024-04-25T02:43:03.034Z,7.47
2024-04-25T02:47:05.702Z,7.60
2024-04-25T02:51:08.292Z,5.10
2024-04-25T02:55:10.866Z,5.77
2024-04-25T02:59:13.591Z,6.17
2024-04-25T03:03:16.363Z,6.23
2024-04-25T03:07:19.035Z,6.93
2024-04-25T03:11:21.727Z,6.27
2024-04-25T03:15:24.388Z,7.47
2024-04-25T03:19:27.002Z,7.80
2024-04-25T03:23:29.682Z,5.87
2024-04-25T03:27:32.360Z,6.03
2024-04-25T03:31:34.916Z,6.77
2024-04-25T03:35:37.577Z,6.97
2024-04-25T03:39:40.232Z,6.47
2024-04-25T03:43:42.818Z,6.53
2024-04-25T03:47:45.542Z,7.00
2024-04-25T03:51:48.220Z,5.77
2024-04-25T03:55:50.866Z,5.57
2024-04-25T03:59:53.451Z,5.53
2024-04-25T04:03:56.056Z,5.20
2024-04-25T04:07:58.739Z,4.43
2024-04-25T04:12:01.407Z,5.73
2024-04-25T04:16:08.613Z,5.17
2024-04-25T04:20:11.462Z,5.83
2024-04-25T04:24:14.094Z,5.03
2024-04-25T04:28:16.724Z,5.73
2024-04-25T04:32:19.340Z,5.47
2024-04-25T04:36:22.032Z,4.70
2024-04-25T04:40:24.645Z,5.00
2024-04-25T04:44:27.253Z,5.87
2024-04-25T04:48:34.594Z,5.83
2024-04-25T04:52:38.058Z,4.93
2024-04-25T04:56:43.689Z,4.87
2024-04-25T05:00:46.310Z,4.07
2024-04-25T05:04:49.469Z,4.30
2024-04-25T05:08:52.457Z,4.03
2024-04-25T05:12:55.403Z,4.73
2024-04-25T05:16:57.991Z,4.83
2024-04-25T05:21:01.716Z,4.50
2024-04-25T05:25:04.713Z,5.70
2024-04-25T05:29:07.286Z,3.57
2024-04-25T05:33:09.945Z,4.07
2024-04-25T05:37:12.572Z,4.50
2024-04-25T05:41:15.251Z,4.40
2024-04-25T05:45:17.910Z,4.50
2024-04-25T05:49:20.489Z,4.93
2024-04-25T05:53:23.129Z,4.53
2024-04-25T05:57:25.743Z,5.27
2024-04-25T06:01:28.342Z,4.90
2024-04-25T06:05:31.638Z,4.97
2024-04-25T06:09:34.374Z,4.87
2024-04-25T06:13:36.982Z,5.73
2024-04-25T06:17:40.895Z,4.20
2024-04-25T06:21:43.620Z,3.40
2024-04-25T06:25:46.197Z,5.20
2024-04-25T06:29:48.808Z,4.37
2024-04-25T06:33:51.928Z,5.97
2024-04-25T06:37:54.469Z,4.90
2024-04-25T06:41:59.089Z,3.50
2024-04-25T06:46:02.067Z,4.23
2024-04-25T06:50:04.663Z,4.73
2024-04-25T06:54:07.296Z,3.67
2024-04-25T06:58:09.886Z,3.53
2024-04-25T07:02:12.726Z,4.50
2024-04-25T07:06:15.327Z,4.67
2024-04-25T07:10:17.956Z,3.27
2024-04-25T07:14:20.548Z,4.27
2024-04-25T07:18:23.258Z,4.80
2024-04-25T07:22:25.834Z,4.30
2024-04-25T07:26:28.555Z,2.97
2024-04-25T07:30:31.248Z,4.23
2024-04-25T07:34:33.837Z,5.13
2024-04-25T07:38:36.466Z,4.03
2024-04-25T07:42:39.135Z,5.00
2024-04-25T07:46:41.672Z,5.83
2024-04-25T07:50:44.383Z,3.80
2024-04-25T07:54:47.065Z,5.43
2024-04-25T07:58:49.636Z,4.93
2024-04-25T08:02:52.336Z,4.47
2024-04-25T08:06:54.914Z,5.27
2024-04-25T08:10:57.541Z,5.43
2024-04-25T08:15:00.241Z,4.03
2024-04-25T08:19:02.866Z,3.47
2024-04-25T08:23:05.542Z,4.07
2024-04-25T08:27:08.173Z,3.67
2024-04-25T08:31:10.864Z,4.30
2024-04-25T08:35:13.675Z,3.40
2024-04-25T08:39:16.329Z,4.53
2024-04-25T08:43:18.987Z,3.23
2024-04-25T08:47:21.814Z,3.90
2024-04-25T08:51:24.971Z,5.33
2024-04-25T08:55:27.874Z,5.20
2024-04-25T08:59:30.560Z,6.80
2024-04-25T09:03:33.388Z,5.57
2024-04-25T09:07:36.324Z,3.90
2024-04-25T09:11:39.933Z,4.70
2024-04-25T09:15:42.584Z,4.40
2024-04-25T09:19:45.447Z,4.10
2024-04-25T09:23:48.256Z,4.17
2024-04-25T09:27:50.897Z,3.30
2024-04-25T09:31:53.784Z,2.53
2024-04-25T09:35:56.554Z,2.30
2024-04-25T09:44:03.288Z,4.10
2024-04-25T09:48:07.205Z,2.33
2024-04-25T09:52:13.768Z,1.37
2024-04-25T09:56:19.955Z,2.67
2024-04-25T10:00:22.843Z,2.43
2024-04-25T10:04:26.107Z,3.17
2024-04-25T10:08:28.892Z,1.67
2024-04-25T10:12:33.619Z,2.60
2024-04-25T10:16:37.676Z,3.50
2024-04-25T10:20:40.282Z,1.40
2024-04-25T10:24:46.910Z,2.77
2024-04-25T10:29:01.558Z,3.23
2024-04-25T10:33:06.210Z,2.20
2024-04-25T10:37:08.884Z,1.40
2024-04-25T10:41:11.471Z,2.33
2024-04-25T10:45:14.072Z,1.67
2024-04-25T10:49:16.767Z,2.00
2024-04-25T10:53:22.368Z,1.67
2024-04-25T10:57:24.933Z,0.70
2024-04-25T11:01:28.386Z,2.23
2024-04-25T11:05:31.020Z,1.23
2024-04-25T11:09:34.405Z,1.17
2024-04-25T11:13:36.981Z,0.70
2024-04-25T11:17:46.718Z,0.93
2024-04-25T11:21:57.235Z,1.97
2024-04-25T11:26:00.246Z,1.13
2024-04-25T11:30:02.869Z,2.03
2024-04-25T11:34:06.253Z,1.67
2024-04-25T11:38:12.594Z,2.67
2024-04-25T11:42:15.222Z,2.23
2024-04-25T11:46:17.915Z,3.60
2024-04-25T11:50:20.607Z,2.90
2024-04-25T11:54:23.311Z,1.67
2024-04-25T11:58:25.902Z,1.83
2024-04-25T12:02:28.455Z,2.77
2024-04-25T12:06:31.077Z,2.43
2024-04-25T12:10:33.658Z,1.17
2024-04-25T12:14:36.274Z,1.80
2024-04-25T12:18:38.925Z,3.13
2024-04-25T12:22:41.478Z,2.03
2024-04-25T12:26:44.144Z,2.57
2024-04-25T12:30:47.207Z,1.50
2024-04-25T12:34:49.805Z,2.47
2024-04-25T12:38:52.423Z,2.03
2024-04-25T12:42:55.003Z,1.57
2024-04-25T12:46:57.647Z,0.90
2024-04-25T12:51:00.288Z,1.10
2024-04-25T12:55:02.989Z,2.53
2024-04-25T12:59:05.547Z,1.60
2024-04-25T13:03:08.221Z,1.53
2024-04-25T13:07:10.853Z,1.80
2024-04-25T13:11:14.374Z,2.63
2024-04-25T13:15:17.014Z,1.17
2024-04-25T13:19:19.746Z,0.23
2024-04-25T13:23:22.393Z,1.03
2024-04-25T13:27:25.283Z,1.37
2024-04-25T13:31:28.180Z,0.80
2024-04-25T13:35:30.808Z,0.70
2024-04-25T13:39:33.386Z,1.03
2024-04-25T13:43:35.933Z,1.30
2024-04-25T13:47:38.631Z,0.90
2024-04-25T13:51:41.305Z,2.10
2024-04-25T13:55:43.923Z,3.20
2024-04-25T13:59:46.879Z,0.30
2024-04-25T14:03:49.600Z,0.40
2024-04-25T14:07:52.251Z,0.40
2024-04-25T14:11:54.988Z,0.53
2024-04-25T14:15:57.687Z,0.60
2024-04-25T14:20:00.325Z,0.43
2024-04-25T14:24:02.944Z,0.40
2024-04-25T14:28:05.792Z,1.00
2024-04-25T14:32:08.382Z,0.70
2024-04-25T14:36:11.148Z,1.00
2024-04-25T14:40:13.864Z,0.60
2024-04-25T14:44:16.465Z,0.70
2024-04-25T14:48:19.334Z,0.43
2024-04-25T14:52:21.993Z,0.43
2024-04-25T14:56:24.579Z,0.67
2024-04-25T15:00:27.147Z,0.53
2024-04-25T15:04:29.741Z,0.90
2024-04-25T15:08:32.343Z,0.97
2024-04-25T15:12:39.440Z,0.80
2024-04-25T15:16:42.309Z,1.00
2024-04-25T15:20:45.252Z,1.17
2024-04-25T15:24:47.861Z,2.10
2024-04-25T15:28:50.493Z,0.90
2024-04-25T15:32:53.331Z,1.20
2024-04-25T15:36:55.981Z,1.20
2024-04-25T15:40:58.530Z,1.13
2024-04-25T15:45:01.143Z,1.10
2024-04-25T15:49:04.198Z,0.63
2024-04-25T15:53:09.149Z,1.70
2024-04-25T15:57:12.319Z,1.23
2024-04-25T16:01:15.374Z,1.20
2024-04-25T16:05:18.002Z,1.80
2024-04-25T16:09:20.580Z,1.50
2024-04-25T16:13:23.149Z,1.10
2024-04-25T16:17:25.843Z,1.87
2024-04-25T16:21:28.518Z,1.90
2024-04-25T16:25:31.103Z,1.47
2024-04-25T16:29:33.676Z,1.20
2024-04-25T16:33:36.436Z,2.37
2024-04-25T16:37:39.082Z,1.20
2024-04-25T16:41:41.786Z,1.07
2024-04-25T16:45:44.557Z,1.70
2024-04-25T16:49:47.190Z,1.20
2024-04-25T16:53:49.855Z,1.23
2024-04-25T16:57:52.543Z,1.40
2024-04-25T17:01:55.162Z,2.57
2024-04-25T17:05:57.847Z,1.60
2024-04-25T17:10:00.578Z,2.53
2024-04-25T17:14:03.140Z,1.20
2024-04-25T17:18:06.111Z,2.70
2024-04-25T17:22:08.770Z,1.27
2024-04-25T17:26:11.437Z,2.40
2024-04-25T17:30:14.145Z,2.20
2024-04-25T17:34:16.899Z,3.63
2024-04-25T17:38:19.623Z,1.63
2024-04-25T17:42:22.333Z,2.27
2024-04-25T17:46:24.940Z,1.07
2024-04-25T17:50:27.560Z,1.90
2024-04-25T17:54:30.203Z,4.10
2024-04-25T17:58:32.755Z,4.83
2024-04-25T18:02:35.324Z,3.13
2024-04-25T18:06:37.962Z,3.53
2024-04-25T18:10:41.924Z,3.60
2024-04-25T18:14:44.618Z,2.30
2024-04-25T18:18:47.327Z,1.03
2024-04-25T18:22:50.939Z,4.00
2024-04-25T18:26:53.541Z,4.47
2024-04-25T18:30:56.144Z,1.63
2024-04-25T18:34:59.218Z,1.83
2024-04-25T18:39:01.807Z,1.77
2024-04-25T18:43:04.429Z,2.37
2024-04-25T18:47:07.050Z,1.37
2024-04-25T18:51:09.678Z,0.80
2024-04-25T18:55:12.216Z,2.00
2024-04-25T18:59:14.767Z,0.93
2024-04-25T19:03:18.007Z,2.30
2024-04-25T19:07:20.715Z,1.60
2024-04-25T19:11:23.400Z,1.10
2024-04-25T19:15:26.661Z,1.40
2024-04-25T19:19:29.240Z,0.93
2024-04-25T19:23:31.797Z,2.50
2024-04-25T19:27:37.485Z,1.27
2024-04-25T19:31:50.330Z,1.83
2024-04-25T19:35:52.905Z,0.60
2024-04-25T19:39:55.450Z,1.10
2024-04-25T19:43:58.069Z,1.20
2024-04-25T19:48:00.763Z,0.83
2024-04-25T19:52:03.438Z,0.70
2024-04-25T19:56:09.346Z,3.80
2024-04-25T20:00:12.201Z,1.67
2024-04-25T20:04:14.866Z,1.10
2024-04-25T20:08:17.422Z,0.93
2024-04-25T20:12:20.207Z,3.10
2024-04-25T20:16:22.964Z,1.83
2024-04-25T20:20:25.539Z,1.80
2024-04-25T20:24:28.288Z,1.50
2024-04-25T20:28:30.886Z,0.93
2024-04-25T20:32:33.587Z,0.30
2024-04-25T20:36:36.265Z,0.60
2024-04-25T20:40:38.915Z,1.23
2024-04-25T20:44:41.508Z,1.03
2024-04-25T20:48:45.484Z,2.00
2024-04-25T20:52:49.306Z,1.47
2024-04-25T20:56:51.934Z,2.47
2024-04-25T21:00:54.579Z,1.57
2024-04-25T21:04:57.166Z,0.67
2024-04-25T21:08:59.894Z,2.30
2024-04-25T21:13:02.458Z,1.50
2024-04-25T21:17:05.105Z,0.97
2024-04-25T21:21:07.776Z,1.43
2024-04-25T21:25:10.423Z,2.37
2024-04-25T21:29:13.061Z,1.47
2024-04-25T21:33:15.828Z,1.07
2024-04-25T21:37:18.563Z,2.13
2024-04-25T21:41:21.196Z,1.73
2024-04-25T21:45:23.767Z,1.90
2024-04-25T21:49:26.514Z,2.53
2024-04-25T21:53:29.239Z,0.83
2024-04-25T21:57:31.858Z,1.60
2024-04-25T22:01:34.727Z,3.03
2024-04-25T22:05:37.394Z,1.10
2024-04-25T22:09:39.978Z,1.23
2024-04-25T22:13:43.115Z,1.00
2024-04-25T22:17:45.958Z,1.10
2024-04-25T22:21:51.735Z,1.27
2024-04-25T22:25:54.866Z,1.50
2024-04-25T22:29:57.463Z,1.30
2024-04-25T22:34:00.210Z,1.13
2024-04-25T22:38:02.871Z,1.53
2024-04-25T22:42:05.582Z,0.93
2024-04-25T22:46:08.179Z,2.33
2024-04-25T22:50:10.863Z,1.00
2024-04-25T22:54:13.393Z,1.13
2024-04-25T22:58:15.971Z,3.90
2024-04-25T23:02:18.565Z,0.90
2024-04-25T23:06:21.151Z,2.93
2024-04-25T23:10:23.807Z,2.93
2024-04-25T23:14:26.376Z,1.73
2024-04-25T23:18:29.067Z,0.73
2024-04-25T23:22:31.703Z,1.20
2024-04-25T23:26:37.363Z,1.37
2024-04-25T23:30:39.918Z,1.10
2024-04-25T23:34:42.507Z,1.33
2024-04-25T23:38:45.592Z,1.30
2024-04-25T23:42:48.188Z,1.37
2024-04-25T23:46:50.769Z,1.13
2024-04-25T23:50:53.521Z,1.20
2024-04-25T23:54:56.159Z,0.93
2024-04-25T23:58:58.744Z,1.30
